sensor_id;sensor_type;location;lat;lon;timestamp;P1;durP1;ratioP1;P2;durP2;ratioP2
51312;SDS011;37397;53.226;10.400;2023-02-15T00:01:39;78.63;;;44.65;;
51312;SDS011;37397;53.226;10.400;2023-02-15T00:04:06;74.22;;;45.55;;
51312;SDS011;37397;53.226;10.400;2023-02-15T00:06:34;74.50;;;43.75;;
51312;SDS011;37397;53.226;10.400;2023-02-15T00:09:02;76.57;;;44.35;;
51312;SDS011;37397;53.226;10.400;2023-02-15T00:11:28;75.43;;;44.10;;
51312;SDS011;37397;53.226;10.400;2023-02-15T00:14:17;72.47;;;43.38;;
51312;SDS011;37397;53.226;10.400;2023-02-15T00:16:49;74.40;;;44.22;;
51312;SDS011;37397;53.226;10.400;2023-02-15T00:19:18;76.75;;;43.75;;
51312;SDS011;37397;53.226;10.400;2023-02-15T00:21:46;77.95;;;44.40;;
51312;SDS011;37397;53.226;10.400;2023-02-15T00:24:14;76.40;;;45.30;;
51312;SDS011;37397;53.226;10.400;2023-02-15T00:26:42;77.05;;;44.92;;
51312;SDS011;37397;53.226;10.400;2023-02-15T00:29:10;74.80;;;44.08;;
51312;SDS011;37397;53.226;10.400;2023-02-15T00:31:38;78.50;;;44.60;;
51312;SDS011;37397;53.226;10.400;2023-02-15T00:34:11;78.90;;;44.70;;
51312;SDS011;37397;53.226;10.400;2023-02-15T00:36:40;79.78;;;45.30;;
51312;SDS011;37397;53.226;10.400;2023-02-15T00:39:06;78.30;;;44.58;;
51312;SDS011;37397;53.226;10.400;2023-02-15T00:41:34;72.40;;;43.70;;
51312;SDS011;37397;53.226;10.400;2023-02-15T00:44:01;69.07;;;42.80;;
51312;SDS011;37397;53.226;10.400;2023-02-15T00:46:28;74.60;;;43.03;;
51312;SDS011;37397;53.226;10.400;2023-02-15T00:48:55;76.78;;;44.33;;
51312;SDS011;37397;53.226;10.400;2023-02-15T00:51:22;71.57;;;42.83;;
51312;SDS011;37397;53.226;10.400;2023-02-15T00:53:49;72.40;;;43.20;;
51312;SDS011;37397;53.226;10.400;2023-02-15T00:56:15;73.10;;;44.65;;
51312;SDS011;37397;53.226;10.400;2023-02-15T00:58:42;71.90;;;43.33;;
51312;SDS011;37397;53.226;10.400;2023-02-15T01:01:10;71.25;;;42.60;;
51312;SDS011;37397;53.226;10.400;2023-02-15T01:03:38;70.28;;;42.88;;
51312;SDS011;37397;53.226;10.400;2023-02-15T01:06:08;68.80;;;41.67;;
51312;SDS011;37397;53.226;10.400;2023-02-15T01:08:36;69.82;;;41.72;;
51312;SDS011;37397;53.226;10.400;2023-02-15T01:11:06;67.57;;;41.30;;
51312;SDS011;37397;53.226;10.400;2023-02-15T01:13:35;72.43;;;41.97;;
51312;SDS011;37397;53.226;10.400;2023-02-15T01:16:02;68.85;;;40.63;;
51312;SDS011;37397;53.226;10.400;2023-02-15T01:18:33;65.57;;;40.58;;
51312;SDS011;37397;53.226;10.400;2023-02-15T01:21:00;63.40;;;39.33;;
51312;SDS011;37397;53.226;10.400;2023-02-15T01:23:26;66.70;;;39.47;;
51312;SDS011;37397;53.226;10.400;2023-02-15T01:25:53;63.53;;;39.50;;
51312;SDS011;37397;53.226;10.400;2023-02-15T01:28:19;63.08;;;38.95;;
51312;SDS011;37397;53.226;10.400;2023-02-15T01:30:46;62.67;;;39.20;;
51312;SDS011;37397;53.226;10.400;2023-02-15T01:33:15;62.22;;;38.75;;
51312;SDS011;37397;53.226;10.400;2023-02-15T01:35:45;64.25;;;39.42;;
51312;SDS011;37397;53.226;10.400;2023-02-15T01:38:12;62.45;;;38.28;;
51312;SDS011;37397;53.226;10.400;2023-02-15T01:40:40;60.47;;;38.40;;
51312;SDS011;37397;53.226;10.400;2023-02-15T01:43:09;62.10;;;38.88;;
51312;SDS011;37397;53.226;10.400;2023-02-15T01:45:37;62.22;;;38.33;;
51312;SDS011;37397;53.226;10.400;2023-02-15T01:53:10;65.45;;;39.03;;
51312;SDS011;37397;53.226;10.400;2023-02-15T01:56:08;59.38;;;37.03;;
51312;SDS011;37397;53.226;10.400;2023-02-15T01:58:40;64.80;;;39.05;;
51312;SDS011;37397;53.226;10.400;2023-02-15T02:01:08;64.93;;;37.88;;
51312;SDS011;37397;53.226;10.400;2023-02-15T02:06:13;57.50;;;36.75;;
51312;SDS011;37397;53.226;10.400;2023-02-15T02:08:41;65.45;;;39.22;;
51312;SDS011;37397;53.226;10.400;2023-02-15T02:11:10;62.30;;;38.92;;
51312;SDS011;37397;53.226;10.400;2023-02-15T02:13:41;62.95;;;39.08;;
51312;SDS011;37397;53.226;10.400;2023-02-15T02:22:08;62.17;;;37.97;;
51312;SDS011;37397;53.226;10.400;2023-02-15T02:35:56;64.65;;;38.22;;
51312;SDS011;37397;53.226;10.400;2023-02-15T02:47:12;62.92;;;37.78;;
51312;SDS011;37397;53.226;10.400;2023-02-15T02:49:46;61.60;;;37.60;;
51312;SDS011;37397;53.226;10.400;2023-02-15T02:55:03;56.67;;;36.35;;
51312;SDS011;37397;53.226;10.400;2023-02-15T02:57:35;61.08;;;36.60;;
51312;SDS011;37397;53.226;10.400;2023-02-15T03:00:06;58.42;;;36.47;;
51312;SDS011;37397;53.226;10.400;2023-02-15T03:02:36;60.08;;;37.85;;
51312;SDS011;37397;53.226;10.400;2023-02-15T03:05:07;58.15;;;36.22;;
51312;SDS011;37397;53.226;10.400;2023-02-15T03:07:39;63.75;;;37.10;;
51312;SDS011;37397;53.226;10.400;2023-02-15T03:10:08;56.10;;;35.28;;
51312;SDS011;37397;53.226;10.400;2023-02-15T03:12:37;55.88;;;35.13;;
51312;SDS011;37397;53.226;10.400;2023-02-15T03:15:18;57.53;;;35.17;;
51312;SDS011;37397;53.226;10.400;2023-02-15T03:17:49;57.97;;;34.70;;
51312;SDS011;37397;53.226;10.400;2023-02-15T03:20:26;54.67;;;33.73;;
51312;SDS011;37397;53.226;10.400;2023-02-15T03:23:01;60.03;;;37.20;;
51312;SDS011;37397;53.226;10.400;2023-02-15T03:25:33;62.75;;;37.97;;
51312;SDS011;37397;53.226;10.400;2023-02-15T03:28:08;58.67;;;36.88;;
51312;SDS011;37397;53.226;10.400;2023-02-15T03:30:39;56.95;;;34.95;;
51312;SDS011;37397;53.226;10.400;2023-02-15T03:33:10;58.72;;;36.70;;
51312;SDS011;37397;53.226;10.400;2023-02-15T03:35:49;56.28;;;35.28;;
51312;SDS011;37397;53.226;10.400;2023-02-15T03:38:25;62.88;;;35.33;;
51312;SDS011;37397;53.226;10.400;2023-02-15T03:40:59;54.55;;;34.38;;
51312;SDS011;37397;53.226;10.400;2023-02-15T03:46:29;54.08;;;33.65;;
51312;SDS011;37397;53.226;10.400;2023-02-15T03:49:05;54.72;;;34.35;;
51312;SDS011;37397;53.226;10.400;2023-02-15T03:51:53;52.95;;;32.83;;
51312;SDS011;37397;53.226;10.400;2023-02-15T03:54:24;58.08;;;32.97;;
51312;SDS011;37397;53.226;10.400;2023-02-15T03:57:14;52.38;;;33.28;;
51312;SDS011;37397;53.226;10.400;2023-02-15T04:00:22;53.22;;;33.08;;
51312;SDS011;37397;53.226;10.400;2023-02-15T04:05:59;50.67;;;31.48;;
51312;SDS011;37397;53.226;10.400;2023-02-15T04:08:28;50.08;;;31.75;;
51312;SDS011;37397;53.226;10.400;2023-02-15T04:11:13;52.80;;;32.75;;
51312;SDS011;37397;53.226;10.400;2023-02-15T04:13:40;48.95;;;31.77;;
51312;SDS011;37397;53.226;10.400;2023-02-15T04:16:08;49.47;;;30.90;;
51312;SDS011;37397;53.226;10.400;2023-02-15T04:18:38;50.20;;;32.38;;
51312;SDS011;37397;53.226;10.400;2023-02-15T04:21:25;48.05;;;30.80;;
51312;SDS011;37397;53.226;10.400;2023-02-15T04:24:11;53.33;;;33.38;;
51312;SDS011;37397;53.226;10.400;2023-02-15T04:26:57;48.97;;;31.58;;
51312;SDS011;37397;53.226;10.400;2023-02-15T04:29:24;47.83;;;31.20;;
51312;SDS011;37397;53.226;10.400;2023-02-15T04:31:53;49.95;;;31.45;;
51312;SDS011;37397;53.226;10.400;2023-02-15T04:34:21;48.15;;;30.95;;
51312;SDS011;37397;53.226;10.400;2023-02-15T04:36:48;50.78;;;31.17;;
51312;SDS011;37397;53.226;10.400;2023-02-15T04:39:16;51.35;;;29.75;;
51312;SDS011;37397;53.226;10.400;2023-02-15T04:41:44;47.03;;;29.13;;
51312;SDS011;37397;53.226;10.400;2023-02-15T04:44:11;46.60;;;30.52;;
51312;SDS011;37397;53.226;10.400;2023-02-15T04:46:37;51.88;;;29.65;;
51312;SDS011;37397;53.226;10.400;2023-02-15T04:49:04;48.42;;;30.10;;
51312;SDS011;37397;53.226;10.400;2023-02-15T04:51:30;45.33;;;29.85;;
51312;SDS011;37397;53.226;10.400;2023-02-15T04:53:57;45.45;;;28.73;;
51312;SDS011;37397;53.226;10.400;2023-02-15T04:56:23;44.20;;;28.20;;
51312;SDS011;37397;53.226;10.400;2023-02-15T04:58:50;45.17;;;29.45;;
51312;SDS011;37397;53.226;10.400;2023-02-15T05:01:16;43.22;;;27.88;;
51312;SDS011;37397;53.226;10.400;2023-02-15T05:03:43;41.13;;;28.08;;
51312;SDS011;37397;53.226;10.400;2023-02-15T05:06:10;41.13;;;26.50;;
51312;SDS011;37397;53.226;10.400;2023-02-15T05:08:36;39.67;;;27.33;;
51312;SDS011;37397;53.226;10.400;2023-02-15T05:11:03;41.47;;;27.23;;
51312;SDS011;37397;53.226;10.400;2023-02-15T05:13:29;42.00;;;27.67;;
51312;SDS011;37397;53.226;10.400;2023-02-15T05:15:56;38.72;;;26.73;;
51312;SDS011;37397;53.226;10.400;2023-02-15T05:18:22;38.85;;;26.33;;
51312;SDS011;37397;53.226;10.400;2023-02-15T05:20:49;38.55;;;26.17;;
51312;SDS011;37397;53.226;10.400;2023-02-15T05:23:15;38.78;;;25.73;;
51312;SDS011;37397;53.226;10.400;2023-02-15T05:25:46;41.53;;;26.08;;
51312;SDS011;37397;53.226;10.400;2023-02-15T05:28:35;41.00;;;25.90;;
51312;SDS011;37397;53.226;10.400;2023-02-15T05:33:40;37.10;;;26.15;;
51312;SDS011;37397;53.226;10.400;2023-02-15T05:36:07;50.78;;;26.67;;
51312;SDS011;37397;53.226;10.400;2023-02-15T05:38:35;36.72;;;25.00;;
51312;SDS011;37397;53.226;10.400;2023-02-15T05:41:05;39.13;;;25.80;;
51312;SDS011;37397;53.226;10.400;2023-02-15T05:43:33;38.20;;;25.35;;
51312;SDS011;37397;53.226;10.400;2023-02-15T05:45:59;40.35;;;25.48;;
51312;SDS011;37397;53.226;10.400;2023-02-15T05:48:28;39.85;;;26.05;;
51312;SDS011;37397;53.226;10.400;2023-02-15T05:51:05;41.72;;;25.92;;
51312;SDS011;37397;53.226;10.400;2023-02-15T05:53:34;40.10;;;26.50;;
51312;SDS011;37397;53.226;10.400;2023-02-15T05:56:03;40.17;;;24.75;;
51312;SDS011;37397;53.226;10.400;2023-02-15T05:58:31;40.42;;;26.25;;
51312;SDS011;37397;53.226;10.400;2023-02-15T06:01:06;39.38;;;24.83;;
51312;SDS011;37397;53.226;10.400;2023-02-15T06:03:34;46.85;;;25.02;;
51312;SDS011;37397;53.226;10.400;2023-02-15T06:06:01;43.53;;;25.60;;
51312;SDS011;37397;53.226;10.400;2023-02-15T06:08:30;41.10;;;25.92;;
51312;SDS011;37397;53.226;10.400;2023-02-15T06:10:57;40.72;;;26.00;;
51312;SDS011;37397;53.226;10.400;2023-02-15T06:13:23;42.10;;;24.98;;
51312;SDS011;37397;53.226;10.400;2023-02-15T06:15:50;44.20;;;26.63;;
51312;SDS011;37397;53.226;10.400;2023-02-15T06:18:16;39.50;;;26.20;;
51312;SDS011;37397;53.226;10.400;2023-02-15T06:20:45;40.33;;;27.10;;
51312;SDS011;37397;53.226;10.400;2023-02-15T06:23:12;43.95;;;26.70;;
51312;SDS011;37397;53.226;10.400;2023-02-15T06:25:39;40.05;;;26.00;;
51312;SDS011;37397;53.226;10.400;2023-02-15T06:28:05;39.80;;;26.30;;
51312;SDS011;37397;53.226;10.400;2023-02-15T06:30:32;41.03;;;27.88;;
51312;SDS011;37397;53.226;10.400;2023-02-15T06:32:58;40.83;;;26.08;;
51312;SDS011;37397;53.226;10.400;2023-02-15T06:35:25;50.22;;;28.20;;
51312;SDS011;37397;53.226;10.400;2023-02-15T06:37:52;42.78;;;27.35;;
51312;SDS011;37397;53.226;10.400;2023-02-15T06:40:18;42.17;;;27.08;;
51312;SDS011;37397;53.226;10.400;2023-02-15T06:42:45;40.17;;;25.92;;
51312;SDS011;37397;53.226;10.400;2023-02-15T06:45:11;43.35;;;26.95;;
51312;SDS011;37397;53.226;10.400;2023-02-15T06:47:38;40.28;;;26.35;;
51312;SDS011;37397;53.226;10.400;2023-02-15T06:50:05;43.60;;;26.98;;
51312;SDS011;37397;53.226;10.400;2023-02-15T06:52:32;42.83;;;27.73;;
51312;SDS011;37397;53.226;10.400;2023-02-15T06:54:59;42.25;;;26.83;;
51312;SDS011;37397;53.226;10.400;2023-02-15T06:57:25;42.15;;;26.75;;
51312;SDS011;37397;53.226;10.400;2023-02-15T06:59:52;40.38;;;25.52;;
51312;SDS011;37397;53.226;10.400;2023-02-15T07:02:18;42.38;;;26.58;;
51312;SDS011;37397;53.226;10.400;2023-02-15T07:04:45;43.05;;;25.38;;
51312;SDS011;37397;53.226;10.400;2023-02-15T07:07:12;42.85;;;26.85;;
51312;SDS011;37397;53.226;10.400;2023-02-15T07:09:39;41.03;;;26.58;;
51312;SDS011;37397;53.226;10.400;2023-02-15T07:12:06;38.92;;;26.20;;
51312;SDS011;37397;53.226;10.400;2023-02-15T07:14:51;46.00;;;27.88;;
51312;SDS011;37397;53.226;10.400;2023-02-15T07:17:17;39.63;;;26.27;;
51312;SDS011;37397;53.226;10.400;2023-02-15T07:20:01;44.72;;;27.92;;
51312;SDS011;37397;53.226;10.400;2023-02-15T07:22:29;40.75;;;25.40;;
51312;SDS011;37397;53.226;10.400;2023-02-15T07:24:55;41.67;;;26.80;;
51312;SDS011;37397;53.226;10.400;2023-02-15T07:27:22;54.30;;;30.33;;
51312;SDS011;37397;53.226;10.400;2023-02-15T07:29:48;45.58;;;28.73;;
51312;SDS011;37397;53.226;10.400;2023-02-15T07:32:15;51.75;;;29.95;;
51312;SDS011;37397;53.226;10.400;2023-02-15T07:34:41;48.78;;;29.98;;
51312;SDS011;37397;53.226;10.400;2023-02-15T07:37:08;44.47;;;28.45;;
51312;SDS011;37397;53.226;10.400;2023-02-15T07:39:34;44.58;;;27.27;;
51312;SDS011;37397;53.226;10.400;2023-02-15T07:42:01;43.38;;;26.10;;
51312;SDS011;37397;53.226;10.400;2023-02-15T07:44:29;41.00;;;26.08;;
51312;SDS011;37397;53.226;10.400;2023-02-15T07:46:56;42.35;;;26.60;;
51312;SDS011;37397;53.226;10.400;2023-02-15T07:49:22;39.47;;;26.30;;
51312;SDS011;37397;53.226;10.400;2023-02-15T07:51:49;45.97;;;26.90;;
51312;SDS011;37397;53.226;10.400;2023-02-15T07:54:15;38.83;;;25.55;;
51312;SDS011;37397;53.226;10.400;2023-02-15T07:56:42;43.92;;;26.30;;
51312;SDS011;37397;53.226;10.400;2023-02-15T07:59:08;38.08;;;24.88;;
51312;SDS011;37397;53.226;10.400;2023-02-15T08:01:36;40.60;;;25.73;;
51312;SDS011;37397;53.226;10.400;2023-02-15T08:04:04;37.78;;;24.10;;
51312;SDS011;37397;53.226;10.400;2023-02-15T08:06:33;39.08;;;24.65;;
51312;SDS011;37397;53.226;10.400;2023-02-15T08:09:05;36.22;;;23.35;;
51312;SDS011;37397;53.226;10.400;2023-02-15T08:11:34;37.72;;;23.50;;
51312;SDS011;37397;53.226;10.400;2023-02-15T08:19:11;35.50;;;22.55;;
51312;SDS011;37397;53.226;10.400;2023-02-15T08:21:40;35.92;;;22.90;;
51312;SDS011;37397;53.226;10.400;2023-02-15T08:24:09;34.08;;;22.85;;
51312;SDS011;37397;53.226;10.400;2023-02-15T08:26:37;33.15;;;22.40;;
51312;SDS011;37397;53.226;10.400;2023-02-15T08:29:09;33.33;;;22.73;;
51312;SDS011;37397;53.226;10.400;2023-02-15T08:31:36;34.45;;;22.77;;
51312;SDS011;37397;53.226;10.400;2023-02-15T08:34:04;33.78;;;22.77;;
51312;SDS011;37397;53.226;10.400;2023-02-15T08:36:30;35.53;;;22.65;;
51312;SDS011;37397;53.226;10.400;2023-02-15T08:38:58;32.50;;;22.15;;
51312;SDS011;37397;53.226;10.400;2023-02-15T08:41:33;31.38;;;21.35;;
51312;SDS011;37397;53.226;10.400;2023-02-15T08:44:03;32.92;;;21.85;;
51312;SDS011;37397;53.226;10.400;2023-02-15T08:46:35;32.22;;;21.77;;
51312;SDS011;37397;53.226;10.400;2023-02-15T08:49:04;33.65;;;23.10;;
51312;SDS011;37397;53.226;10.400;2023-02-15T08:51:32;31.20;;;21.55;;
51312;SDS011;37397;53.226;10.400;2023-02-15T08:54:01;32.63;;;22.00;;
51312;SDS011;37397;53.226;10.400;2023-02-15T08:56:32;32.05;;;21.73;;
51312;SDS011;37397;53.226;10.400;2023-02-15T08:59:00;32.05;;;21.73;;
51312;SDS011;37397;53.226;10.400;2023-02-15T09:01:31;30.63;;;20.95;;
51312;SDS011;37397;53.226;10.400;2023-02-15T09:04:04;32.80;;;21.73;;
51312;SDS011;37397;53.226;10.400;2023-02-15T09:06:32;34.65;;;23.00;;
51312;SDS011;37397;53.226;10.400;2023-02-15T09:08:59;31.08;;;22.30;;
51312;SDS011;37397;53.226;10.400;2023-02-15T09:11:27;32.35;;;20.98;;
51312;SDS011;37397;53.226;10.400;2023-02-15T09:16:23;30.55;;;20.60;;
51312;SDS011;37397;53.226;10.400;2023-02-15T09:18:52;31.55;;;21.30;;
51312;SDS011;37397;53.226;10.400;2023-02-15T09:21:20;32.83;;;22.08;;
51312;SDS011;37397;53.226;10.400;2023-02-15T09:23:49;30.63;;;21.10;;
51312;SDS011;37397;53.226;10.400;2023-02-15T09:26:21;31.10;;;21.23;;
51312;SDS011;37397;53.226;10.400;2023-02-15T09:28:54;31.90;;;22.33;;
51312;SDS011;37397;53.226;10.400;2023-02-15T09:31:26;33.50;;;21.90;;
51312;SDS011;37397;53.226;10.400;2023-02-15T09:33:54;32.63;;;21.58;;
51312;SDS011;37397;53.226;10.400;2023-02-15T09:36:23;29.85;;;20.88;;
51312;SDS011;37397;53.226;10.400;2023-02-15T09:39:06;31.20;;;20.98;;
51312;SDS011;37397;53.226;10.400;2023-02-15T09:58:30;31.85;;;21.48;;
51312;SDS011;37397;53.226;10.400;2023-02-15T10:01:23;31.70;;;21.98;;
51312;SDS011;37397;53.226;10.400;2023-02-15T10:06:36;31.23;;;21.98;;
51312;SDS011;37397;53.226;10.400;2023-02-15T10:09:46;32.63;;;23.08;;
51312;SDS011;37397;53.226;10.400;2023-02-15T10:17:53;32.40;;;21.83;;
51312;SDS011;37397;53.226;10.400;2023-02-15T10:26:45;33.55;;;22.17;;
51312;SDS011;37397;53.226;10.400;2023-02-15T10:45:53;32.45;;;21.42;;
51312;SDS011;37397;53.226;10.400;2023-02-15T10:48:50;32.45;;;21.75;;
51312;SDS011;37397;53.226;10.400;2023-02-15T10:52:02;30.25;;;21.73;;
51312;SDS011;37397;53.226;10.400;2023-02-15T10:57:11;33.10;;;22.95;;
51312;SDS011;37397;53.226;10.400;2023-02-15T10:59:44;32.08;;;21.98;;
51312;SDS011;37397;53.226;10.400;2023-02-15T11:07:58;32.05;;;22.02;;
51312;SDS011;37397;53.226;10.400;2023-02-15T11:10:28;31.25;;;21.00;;
51312;SDS011;37397;53.226;10.400;2023-02-15T11:12:59;30.67;;;21.75;;
51312;SDS011;37397;53.226;10.400;2023-02-15T11:15:36;32.57;;;21.80;;
51312;SDS011;37397;53.226;10.400;2023-02-15T11:18:11;30.13;;;20.92;;
51312;SDS011;37397;53.226;10.400;2023-02-15T11:23:15;30.30;;;21.90;;
51312;SDS011;37397;53.226;10.400;2023-02-15T11:25:46;29.60;;;21.23;;
51312;SDS011;37397;53.226;10.400;2023-02-15T11:28:22;29.42;;;20.85;;
51312;SDS011;37397;53.226;10.400;2023-02-15T11:30:55;28.63;;;20.98;;
51312;SDS011;37397;53.226;10.400;2023-02-15T11:33:25;32.80;;;21.40;;
51312;SDS011;37397;53.226;10.400;2023-02-15T11:36:00;30.15;;;21.35;;
51312;SDS011;37397;53.226;10.400;2023-02-15T11:38:32;31.15;;;21.42;;
51312;SDS011;37397;53.226;10.400;2023-02-15T11:41:00;31.15;;;21.23;;
51312;SDS011;37397;53.226;10.400;2023-02-15T11:43:44;30.02;;;20.58;;
51312;SDS011;37397;53.226;10.400;2023-02-15T11:46:16;29.23;;;20.27;;
51312;SDS011;37397;53.226;10.400;2023-02-15T11:48:42;26.83;;;19.80;;
51312;SDS011;37397;53.226;10.400;2023-02-15T11:51:11;28.42;;;20.15;;
51312;SDS011;37397;53.226;10.400;2023-02-15T11:53:42;28.42;;;19.58;;
51312;SDS011;37397;53.226;10.400;2023-02-15T11:56:13;30.33;;;21.52;;
51312;SDS011;37397;53.226;10.400;2023-02-15T11:58:51;27.83;;;20.10;;
51312;SDS011;37397;53.226;10.400;2023-02-15T12:06:56;30.60;;;21.48;;
51312;SDS011;37397;53.226;10.400;2023-02-15T12:09:40;29.02;;;20.40;;
51312;SDS011;37397;53.226;10.400;2023-02-15T12:12:29;31.15;;;22.13;;
51312;SDS011;37397;53.226;10.400;2023-02-15T12:15:00;30.17;;;21.65;;
51312;SDS011;37397;53.226;10.400;2023-02-15T12:17:30;31.85;;;21.00;;
51312;SDS011;37397;53.226;10.400;2023-02-15T12:22:46;28.30;;;20.13;;
51312;SDS011;37397;53.226;10.400;2023-02-15T12:25:28;30.15;;;21.70;;
51312;SDS011;37397;53.226;10.400;2023-02-15T12:27:59;27.63;;;19.88;;
51312;SDS011;37397;53.226;10.400;2023-02-15T12:30:34;28.77;;;19.98;;
51312;SDS011;37397;53.226;10.400;2023-02-15T12:33:13;29.75;;;20.13;;
51312;SDS011;37397;53.226;10.400;2023-02-15T12:36:21;29.40;;;20.45;;
51312;SDS011;37397;53.226;10.400;2023-02-15T12:39:03;29.83;;;21.33;;
51312;SDS011;37397;53.226;10.400;2023-02-15T12:44:22;29.70;;;20.95;;
51312;SDS011;37397;53.226;10.400;2023-02-15T12:46:57;31.67;;;21.23;;
51312;SDS011;37397;53.226;10.400;2023-02-15T12:49:35;30.42;;;20.77;;
51312;SDS011;37397;53.226;10.400;2023-02-15T12:52:05;29.77;;;20.63;;
51312;SDS011;37397;53.226;10.400;2023-02-15T12:54:51;30.60;;;21.38;;
51312;SDS011;37397;53.226;10.400;2023-02-15T12:57:29;30.85;;;20.55;;
51312;SDS011;37397;53.226;10.400;2023-02-15T12:59:58;32.47;;;19.95;;
51312;SDS011;37397;53.226;10.400;2023-02-15T13:02:38;31.73;;;20.80;;
51312;SDS011;37397;53.226;10.400;2023-02-15T13:05:13;28.25;;;20.13;;
51312;SDS011;37397;53.226;10.400;2023-02-15T13:07:50;29.83;;;20.63;;
51312;SDS011;37397;53.226;10.400;2023-02-15T13:10:26;29.98;;;20.63;;
51312;SDS011;37397;53.226;10.400;2023-02-15T13:12:57;30.20;;;20.05;;
51312;SDS011;37397;53.226;10.400;2023-02-15T13:15:44;30.10;;;20.50;;
51312;SDS011;37397;53.226;10.400;2023-02-15T13:18:36;29.77;;;20.40;;
51312;SDS011;37397;53.226;10.400;2023-02-15T13:21:09;29.75;;;19.80;;
51312;SDS011;37397;53.226;10.400;2023-02-15T13:23:39;28.95;;;20.38;;
51312;SDS011;37397;53.226;10.400;2023-02-15T13:26:14;30.02;;;19.52;;
51312;SDS011;37397;53.226;10.400;2023-02-15T13:28:46;28.15;;;19.40;;
51312;SDS011;37397;53.226;10.400;2023-02-15T13:31:17;29.52;;;20.48;;
51312;SDS011;37397;53.226;10.400;2023-02-15T13:33:48;30.02;;;20.92;;
51312;SDS011;37397;53.226;10.400;2023-02-15T13:41:50;31.90;;;20.63;;
51312;SDS011;37397;53.226;10.400;2023-02-15T13:45:02;29.85;;;19.88;;
51312;SDS011;37397;53.226;10.400;2023-02-15T13:51:00;32.40;;;20.55;;
51312;SDS011;37397;53.226;10.400;2023-02-15T14:07:39;30.52;;;20.25;;
51312;SDS011;37397;53.226;10.400;2023-02-15T14:10:48;35.67;;;23.27;;
51312;SDS011;37397;53.226;10.400;2023-02-15T14:21:38;31.02;;;20.90;;
51312;SDS011;37397;53.226;10.400;2023-02-15T14:24:24;32.78;;;22.77;;
51312;SDS011;37397;53.226;10.400;2023-02-15T14:30:02;30.63;;;21.67;;
51312;SDS011;37397;53.226;10.400;2023-02-15T14:32:43;34.03;;;21.92;;
51312;SDS011;37397;53.226;10.400;2023-02-15T14:35:18;31.42;;;21.80;;
51312;SDS011;37397;53.226;10.400;2023-02-15T14:37:52;32.22;;;22.23;;
51312;SDS011;37397;53.226;10.400;2023-02-15T14:40:30;33.40;;;21.50;;
51312;SDS011;37397;53.226;10.400;2023-02-15T14:48:46;32.78;;;22.20;;
51312;SDS011;37397;53.226;10.400;2023-02-15T15:02:18;34.25;;;22.55;;
51312;SDS011;37397;53.226;10.400;2023-02-15T15:04:56;34.67;;;22.50;;
51312;SDS011;37397;53.226;10.400;2023-02-15T15:07:53;34.63;;;23.45;;
51312;SDS011;37397;53.226;10.400;2023-02-15T15:12:49;33.67;;;22.10;;
51312;SDS011;37397;53.226;10.400;2023-02-15T15:18:03;34.25;;;23.83;;
51312;SDS011;37397;53.226;10.400;2023-02-15T15:20:46;33.72;;;22.45;;
51312;SDS011;37397;53.226;10.400;2023-02-15T15:25:48;33.50;;;22.83;;
51312;SDS011;37397;53.226;10.400;2023-02-15T15:31:08;35.72;;;24.63;;
51312;SDS011;37397;53.226;10.400;2023-02-15T15:41:56;35.92;;;23.13;;
51312;SDS011;37397;53.226;10.400;2023-02-15T15:44:42;34.25;;;23.35;;
51312;SDS011;37397;53.226;10.400;2023-02-15T15:47:33;39.08;;;23.70;;
51312;SDS011;37397;53.226;10.400;2023-02-15T15:50:04;35.83;;;22.90;;
51312;SDS011;37397;53.226;10.400;2023-02-15T15:52:40;37.58;;;24.20;;
51312;SDS011;37397;53.226;10.400;2023-02-15T15:55:16;37.78;;;24.65;;
51312;SDS011;37397;53.226;10.400;2023-02-15T15:57:47;34.70;;;23.63;;
51312;SDS011;37397;53.226;10.400;2023-02-15T16:00:29;35.88;;;23.65;;
51312;SDS011;37397;53.226;10.400;2023-02-15T16:03:05;34.88;;;23.83;;
51312;SDS011;37397;53.226;10.400;2023-02-15T16:05:35;35.92;;;24.25;;
51312;SDS011;37397;53.226;10.400;2023-02-15T16:08:03;34.40;;;23.77;;
51312;SDS011;37397;53.226;10.400;2023-02-15T16:10:31;33.95;;;23.73;;
51312;SDS011;37397;53.226;10.400;2023-02-15T16:13:00;36.50;;;23.80;;
51312;SDS011;37397;53.226;10.400;2023-02-15T16:15:34;35.45;;;23.80;;
51312;SDS011;37397;53.226;10.400;2023-02-15T16:18:03;33.55;;;22.42;;
51312;SDS011;37397;53.226;10.400;2023-02-15T16:20:33;34.22;;;23.58;;
51312;SDS011;37397;53.226;10.400;2023-02-15T16:25:55;36.33;;;22.70;;
51312;SDS011;37397;53.226;10.400;2023-02-15T16:28:24;38.65;;;24.80;;
51312;SDS011;37397;53.226;10.400;2023-02-15T16:31:07;35.28;;;23.73;;
51312;SDS011;37397;53.226;10.400;2023-02-15T16:33:40;36.10;;;23.90;;
51312;SDS011;37397;53.226;10.400;2023-02-15T16:36:26;40.38;;;26.08;;
51312;SDS011;37397;53.226;10.400;2023-02-15T16:41:21;41.60;;;25.02;;
51312;SDS011;37397;53.226;10.400;2023-02-15T16:43:50;38.65;;;25.25;;
51312;SDS011;37397;53.226;10.400;2023-02-15T16:48:52;52.47;;;30.02;;
51312;SDS011;37397;53.226;10.400;2023-02-15T16:51:23;42.13;;;26.33;;
51312;SDS011;37397;53.226;10.400;2023-02-15T16:53:54;45.03;;;26.75;;
51312;SDS011;37397;53.226;10.400;2023-02-15T16:56:26;41.95;;;25.90;;
51312;SDS011;37397;53.226;10.400;2023-02-15T16:58:56;41.55;;;26.13;;
51312;SDS011;37397;53.226;10.400;2023-02-15T17:01:26;42.75;;;26.23;;
51312;SDS011;37397;53.226;10.400;2023-02-15T17:04:13;40.63;;;25.55;;
51312;SDS011;37397;53.226;10.400;2023-02-15T17:09:29;39.97;;;24.90;;
51312;SDS011;37397;53.226;10.400;2023-02-15T17:11:55;38.95;;;24.92;;
51312;SDS011;37397;53.226;10.400;2023-02-15T17:14:27;40.75;;;25.08;;
51312;SDS011;37397;53.226;10.400;2023-02-15T17:16:59;42.35;;;25.75;;
51312;SDS011;37397;53.226;10.400;2023-02-15T17:19:53;38.67;;;24.85;;
51312;SDS011;37397;53.226;10.400;2023-02-15T17:22:22;40.10;;;25.73;;
51312;SDS011;37397;53.226;10.400;2023-02-15T17:25:00;38.85;;;25.10;;
51312;SDS011;37397;53.226;10.400;2023-02-15T17:27:30;40.50;;;25.35;;
51312;SDS011;37397;53.226;10.400;2023-02-15T17:30:03;36.22;;;24.63;;
51312;SDS011;37397;53.226;10.400;2023-02-15T17:32:57;42.80;;;26.35;;
51312;SDS011;37397;53.226;10.400;2023-02-15T17:35:29;38.90;;;25.48;;
51312;SDS011;37397;53.226;10.400;2023-02-15T17:38:00;42.75;;;26.70;;
51312;SDS011;37397;53.226;10.400;2023-02-15T17:40:34;38.30;;;24.15;;
51312;SDS011;37397;53.226;10.400;2023-02-15T17:43:01;36.42;;;23.63;;
51312;SDS011;37397;53.226;10.400;2023-02-15T17:45:33;36.75;;;23.48;;
51312;SDS011;37397;53.226;10.400;2023-02-15T17:48:02;39.80;;;25.23;;
51312;SDS011;37397;53.226;10.400;2023-02-15T17:50:30;38.20;;;25.42;;
51312;SDS011;37397;53.226;10.400;2023-02-15T17:52:58;40.17;;;24.35;;
51312;SDS011;37397;53.226;10.400;2023-02-15T17:55:27;38.20;;;25.35;;
51312;SDS011;37397;53.226;10.400;2023-02-15T17:58:12;37.60;;;24.42;;
51312;SDS011;37397;53.226;10.400;2023-02-15T18:00:47;39.53;;;24.48;;